createdAt,value
2018-04-20T00:01:37.539Z,12.30
2018-04-20T00:04:05.105Z,12.20
2018-04-20T00:06:32.679Z,12.20
2018-04-20T00:09:00.231Z,12.10
2018-04-20T00:11:27.798Z,12.10
2018-04-20T00:13:55.348Z,12.00
2018-04-20T00:16:22.914Z,12.00
2018-04-20T00:18:57.895Z,11.90
2018-04-20T00:21:26.230Z,11.80
2018-04-20T00:23:53.767Z,11.80
2018-04-20T00:26:21.359Z,11.80
2018-04-20T00:28:48.914Z,11.70
2018-04-20T00:31:16.489Z,11.60
2018-04-20T00:33:44.030Z,11.60
2018-04-20T00:36:11.607Z,11.60
2018-04-20T00:38:39.155Z,11.50
2018-04-20T00:41:06.724Z,11.50
2018-04-20T00:43:34.277Z,11.50
2018-04-20T00:46:01.858Z,11.50
2018-04-20T00:48:29.411Z,11.50
2018-04-20T00:50:56.987Z,11.40
2018-04-20T00:53:31.251Z,11.40
2018-04-20T00:55:58.824Z,11.40
2018-04-20T00:58:26.373Z,11.40
2018-04-20T01:00:53.933Z,11.30
2018-04-20T01:03:21.476Z,11.20
2018-04-20T01:05:49.018Z,11.20
2018-04-20T01:08:16.578Z,11.10
2018-04-20T01:10:44.139Z,11.10
2018-04-20T01:13:12.643Z,11.10
2018-04-20T01:15:40.178Z,11.00
2018-04-20T01:18:07.742Z,11.00
2018-04-20T01:20:35.293Z,10.90
2018-04-20T01:23:02.862Z,10.90
2018-04-20T01:25:30.423Z,10.80
2018-04-20T01:27:57.986Z,10.80
2018-04-20T01:30:25.532Z,10.80
2018-04-20T01:32:53.102Z,10.70
2018-04-20T01:35:20.639Z,10.80
2018-04-20T01:37:48.969Z,10.80
2018-04-20T01:40:18.439Z,10.70
2018-04-20T01:42:46.007Z,10.70
2018-04-20T01:45:13.561Z,10.70
2018-04-20T01:47:41.129Z,10.60
2018-04-20T01:50:08.681Z,10.60
2018-04-20T01:52:36.251Z,10.70
2018-04-20T01:55:03.795Z,10.60
2018-04-20T01:57:31.356Z,10.50
2018-04-20T01:59:58.907Z,10.50
2018-04-20T02:02:26.502Z,10.50
2018-04-20T02:04:54.045Z,10.50
2018-04-20T02:07:21.627Z,10.50
2018-04-20T02:09:49.180Z,10.50
2018-04-20T02:12:16.762Z,10.40
2018-04-20T02:14:45.056Z,10.40
2018-04-20T02:17:14.624Z,10.30
2018-04-20T02:19:42.163Z,10.30
2018-04-20T02:22:09.729Z,10.30
2018-04-20T02:24:37.269Z,10.30
2018-04-20T02:27:04.849Z,10.20
2018-04-20T02:29:32.396Z,10.10
2018-04-20T02:31:59.979Z,10.20
2018-04-20T02:34:27.544Z,10.10
2018-04-20T02:36:55.132Z,10.10
2018-04-20T02:39:22.704Z,10.10
2018-04-20T02:41:51.018Z,10.00
2018-04-20T02:44:18.587Z,10.00
2018-04-20T02:46:46.136Z,10.00
2018-04-20T02:49:13.711Z,10.00
2018-04-20T02:51:41.261Z,10.00
2018-04-20T02:54:08.840Z,10.00
2018-04-20T02:56:36.393Z,10.00
2018-04-20T02:59:03.977Z,10.00
2018-04-20T03:01:31.523Z,9.90
2018-04-20T03:03:59.079Z,9.90
2018-04-20T03:06:26.632Z,9.70
2018-04-20T03:08:54.209Z,9.70
2018-04-20T03:11:21.753Z,9.60
2018-04-20T03:13:49.328Z,9.60
2018-04-20T03:16:16.884Z,9.70
2018-04-20T03:18:44.447Z,9.70
2018-04-20T03:21:11.995Z,9.60
2018-04-20T03:23:39.569Z,9.40
2018-04-20T03:26:07.102Z,9.40
2018-04-20T03:28:34.668Z,9.40
2018-04-20T03:31:02.214Z,9.40
2018-04-20T03:33:29.788Z,9.50
2018-04-20T03:35:57.328Z,9.40
2018-04-20T03:38:24.911Z,9.40
2018-04-20T03:40:53.462Z,9.50
2018-04-20T03:43:21.051Z,9.40
2018-04-20T03:45:48.616Z,9.40
2018-04-20T03:48:16.182Z,9.40
2018-04-20T03:50:43.728Z,9.40
2018-04-20T03:53:11.290Z,9.40
2018-04-20T03:55:38.830Z,9.30
2018-04-20T03:58:06.366Z,9.30
2018-04-20T04:00:34.702Z,9.20
2018-04-20T04:03:02.263Z,9.20
2018-04-20T04:05:29.851Z,9.20
2018-04-20T04:07:58.195Z,9.20
2018-04-20T04:10:25.744Z,9.20
2018-04-20T04:12:53.317Z,9.10
2018-04-20T04:15:20.868Z,9.10
2018-04-20T04:18:00.339Z,9.10
2018-04-20T04:20:36.695Z,9.00
2018-04-20T04:23:16.225Z,9.10
2018-04-20T04:25:55.694Z,9.10
2018-04-20T04:28:25.166Z,9.10
2018-04-20T04:30:52.836Z,9.10
2018-04-20T04:33:21.188Z,8.90
2018-04-20T04:35:48.758Z,8.90
2018-04-20T04:38:16.299Z,8.90
2018-04-20T04:40:43.872Z,8.90
2018-04-20T04:43:11.427Z,8.90
2018-04-20T04:45:39.011Z,8.90
2018-04-20T04:48:06.567Z,8.70
2018-04-20T04:50:34.139Z,8.80
2018-04-20T04:53:01.678Z,8.80
2018-04-20T04:55:30.017Z,8.90
2018-04-20T04:57:57.572Z,8.90
2018-04-20T05:00:25.144Z,9.00
2018-04-20T05:02:52.693Z,9.00
2018-04-20T05:05:20.265Z,9.00
2018-04-20T05:07:47.807Z,9.00
2018-04-20T05:10:15.377Z,9.00
2018-04-20T05:12:42.926Z,9.10
2018-04-20T05:15:10.525Z,9.20
2018-04-20T05:17:38.072Z,9.20
2018-04-20T05:20:05.631Z,9.30
2018-04-20T05:22:33.182Z,9.40
2018-04-20T05:25:00.777Z,9.40
2018-04-20T05:27:28.326Z,9.40
2018-04-20T05:29:56.895Z,9.40
2018-04-20T05:32:24.437Z,9.50
2018-04-20T05:34:52.007Z,9.50
2018-04-20T05:37:19.551Z,9.50
2018-04-20T05:39:47.115Z,9.60
2018-04-20T05:42:14.658Z,9.70
2018-04-20T05:44:42.994Z,10.00
2018-04-20T05:47:10.543Z,10.00
2018-04-20T05:49:38.167Z,10.20
2018-04-20T05:52:05.712Z,10.20
2018-04-20T05:54:34.054Z,10.40
2018-04-20T05:57:01.615Z,10.40
2018-04-20T05:59:29.187Z,10.60
2018-04-20T06:01:57.380Z,10.70
2018-04-20T06:04:25.795Z,10.90
2018-04-20T06:06:53.415Z,10.90
2018-04-20T06:09:20.946Z,11.00
2018-04-20T06:11:48.520Z,11.10
2018-04-20T06:14:16.085Z,11.30
2018-04-20T06:16:44.425Z,11.60
2018-04-20T06:19:11.981Z,11.60
2018-04-20T06:21:39.568Z,11.70
2018-04-20T06:24:09.132Z,11.90
2018-04-20T06:26:36.707Z,12.00
2018-04-20T06:29:04.267Z,12.00
2018-04-20T06:31:31.837Z,12.20
2018-04-20T06:33:59.390Z,12.40
2018-04-20T06:36:26.959Z,12.50
2018-04-20T06:38:54.506Z,12.60
2018-04-20T06:41:22.855Z,12.90
2018-04-20T06:43:50.409Z,12.90
2018-04-20T06:46:17.983Z,13.10
2018-04-20T06:48:45.535Z,13.30
2018-04-20T06:51:13.108Z,13.40
2018-04-20T06:53:40.651Z,13.50
2018-04-20T06:56:08.233Z,13.70
2018-04-20T06:58:40.392Z,13.90
2018-04-20T07:01:07.972Z,14.00
2018-04-20T07:03:35.516Z,14.20
2018-04-20T07:06:03.092Z,14.30
2018-04-20T07:08:30.639Z,14.30
2018-04-20T07:10:58.219Z,14.40
2018-04-20T07:13:25.780Z,14.50
2018-04-20T07:15:57.543Z,14.70
2018-04-20T07:18:25.101Z,15.00
2018-04-20T07:20:52.679Z,15.10
2018-04-20T07:23:20.245Z,15.30
2018-04-20T07:25:48.585Z,15.70
2018-04-20T07:28:16.123Z,15.60
2018-04-20T07:30:43.695Z,15.80
2018-04-20T07:33:11.239Z,16.00
2018-04-20T07:35:38.850Z,16.20
2018-04-20T07:38:06.394Z,16.20
2018-04-20T07:40:33.972Z,16.20
2018-04-20T07:43:01.532Z,16.40
2018-04-20T07:45:29.106Z,16.50
2018-04-20T07:47:57.464Z,16.90
2018-04-20T07:50:26.020Z,16.80
2018-04-20T07:52:53.671Z,17.00
2018-04-20T07:55:21.224Z,17.10
2018-04-20T07:57:48.810Z,17.30
2018-04-20T08:00:16.378Z,17.50
2018-04-20T08:02:43.955Z,17.60
2018-04-20T08:05:11.501Z,17.70
2018-04-20T08:07:39.062Z,17.80
2018-04-20T08:10:06.608Z,17.90
2018-04-20T08:12:34.948Z,18.20
2018-04-20T08:15:02.514Z,18.20
2018-04-20T08:17:30.095Z,18.40
2018-04-20T08:19:57.649Z,18.60
2018-04-20T08:22:26.208Z,18.90
2018-04-20T08:24:53.775Z,19.10
2018-04-20T08:27:21.351Z,19.10
2018-04-20T08:29:48.909Z,19.30
2018-04-20T08:32:16.490Z,19.40
2018-04-20T08:34:44.812Z,19.60
2018-04-20T08:37:12.390Z,19.60
2018-04-20T08:39:39.956Z,19.90
2018-04-20T08:42:07.563Z,20.10
2018-04-20T08:44:35.113Z,20.20
2018-04-20T08:47:02.687Z,20.20
2018-04-20T08:49:30.252Z,20.30
2018-04-20T08:51:57.822Z,20.50
2018-04-20T08:54:26.131Z,20.70
2018-04-20T08:56:53.700Z,20.70
2018-04-20T08:59:21.238Z,21.00
2018-04-20T09:01:48.829Z,21.30
2018-04-20T09:04:16.376Z,21.40
2018-04-20T09:06:43.914Z,21.50
2018-04-20T09:09:11.484Z,21.60
2018-04-20T09:11:39.034Z,21.70
2018-04-20T09:14:06.614Z,21.70
2018-04-20T09:16:34.165Z,21.90
2018-04-20T09:19:01.790Z,22.00
2018-04-20T09:21:30.200Z,22.30
2018-04-20T09:23:57.796Z,22.30
2018-04-20T09:26:25.339Z,22.50
2018-04-20T09:28:52.900Z,22.70
2018-04-20T09:31:20.450Z,22.70
2018-04-20T09:33:48.015Z,22.90
2018-04-20T09:36:15.548Z,23.10
2018-04-20T09:38:43.116Z,23.20
2018-04-20T09:41:10.745Z,23.40
2018-04-20T09:43:38.320Z,23.50
2018-04-20T09:46:06.646Z,23.80
2018-04-20T09:48:34.228Z,23.80
2018-04-20T09:51:01.776Z,23.90
2018-04-20T09:53:29.348Z,24.10
2018-04-20T09:55:57.029Z,24.20
2018-04-20T09:58:25.407Z,24.40
2018-04-20T10:00:52.941Z,24.40
2018-04-20T10:03:20.497Z,24.60
2018-04-20T10:05:48.039Z,24.50
2018-04-20T10:08:15.626Z,24.60
2018-04-20T10:10:43.159Z,24.90
2018-04-20T10:15:44.723Z,25.30
2018-04-20T10:18:12.283Z,25.40
2018-04-20T10:20:39.848Z,25.60
2018-04-20T10:23:07.378Z,25.30
2018-04-20T10:25:34.942Z,25.50
2018-04-20T10:28:02.484Z,25.70
2018-04-20T10:30:30.064Z,25.70
2018-04-20T10:32:57.604Z,25.90
2018-04-20T10:35:25.932Z,26.10
2018-04-20T10:37:53.485Z,26.00
2018-04-20T10:40:21.054Z,26.20
2018-04-20T10:42:48.604Z,26.40
2018-04-20T10:45:16.185Z,26.70
2018-04-20T10:47:43.743Z,26.70
2018-04-20T10:50:11.343Z,26.60
2018-04-20T10:52:38.904Z,26.70
2018-04-20T10:55:06.479Z,26.80
2018-04-20T10:57:34.035Z,26.90
2018-04-20T11:00:01.616Z,27.10
2018-04-20T11:02:29.162Z,27.10
2018-04-20T11:04:56.731Z,27.20
2018-04-20T11:07:24.281Z,27.30
2018-04-20T11:09:51.861Z,27.20
2018-04-20T11:12:19.398Z,27.20
2018-04-20T11:14:46.969Z,27.40
2018-04-20T11:17:14.520Z,27.30
2018-04-20T11:19:42.098Z,27.40
2018-04-20T11:22:09.663Z,27.40
2018-04-20T11:24:37.211Z,27.40
2018-04-20T11:27:04.784Z,27.60
2018-04-20T11:29:32.322Z,27.80
2018-04-20T11:31:59.884Z,27.80
2018-04-20T11:34:27.429Z,28.00
2018-04-20T11:36:55.049Z,28.10
2018-04-20T11:39:22.562Z,28.10
2018-04-20T11:41:50.128Z,28.20
2018-04-20T11:44:17.675Z,28.30
2018-04-20T11:46:45.238Z,28.50
2018-04-20T11:49:12.770Z,28.70
2018-04-20T11:51:40.343Z,28.60
2018-04-20T11:54:07.896Z,28.70
2018-04-20T11:56:35.471Z,28.80
2018-04-20T11:59:03.018Z,28.90
2018-04-20T12:01:30.599Z,28.60
2018-04-20T12:03:58.295Z,28.60
2018-04-20T12:06:25.891Z,28.50
2018-04-20T12:08:53.444Z,28.50
2018-04-20T12:11:21.769Z,28.90
2018-04-20T12:13:49.384Z,28.90
2018-04-20T12:16:16.973Z,29.10
2018-04-20T12:18:44.531Z,29.30
2018-04-20T12:21:12.105Z,29.40
2018-04-20T12:23:39.657Z,29.40
2018-04-20T12:26:07.218Z,29.30
2018-04-20T12:28:34.756Z,29.30
2018-04-20T12:31:02.350Z,29.60
2018-04-20T12:33:30.691Z,30.10
2018-04-20T12:35:58.248Z,30.00
2018-04-20T12:38:25.840Z,30.10
2018-04-20T12:40:53.393Z,30.10
2018-04-20T12:43:20.960Z,30.20
2018-04-20T12:45:48.504Z,30.30
2018-04-20T12:48:16.080Z,30.50
2018-04-20T12:50:43.616Z,30.70
2018-04-20T12:53:11.180Z,30.70
2018-04-20T12:55:38.718Z,30.70
2018-04-20T12:58:07.038Z,30.80
2018-04-20T13:00:34.615Z,30.70
2018-04-20T13:03:02.197Z,30.70
2018-04-20T13:05:30.509Z,30.80
2018-04-20T13:07:58.079Z,30.80
2018-04-20T13:10:25.621Z,30.80
2018-04-20T13:12:53.193Z,30.60
2018-04-20T13:15:20.741Z,30.60
2018-04-20T13:17:48.304Z,30.50
2018-04-20T13:20:15.842Z,30.20
2018-04-20T13:22:44.189Z,30.20
2018-04-20T13:25:11.744Z,30.20
2018-04-20T13:27:39.324Z,30.30
2018-04-20T13:30:06.888Z,30.40
2018-04-20T13:32:35.226Z,30.40
2018-04-20T13:35:03.796Z,30.30
2018-04-20T13:37:31.366Z,30.40
2018-04-20T13:39:59.930Z,30.40
2018-04-20T13:42:27.501Z,30.30
2018-04-20T13:44:55.046Z,30.40
2018-04-20T13:47:22.606Z,30.50
2018-04-20T13:49:51.072Z,30.40
2018-04-20T13:52:18.641Z,30.60
2018-04-20T13:54:46.197Z,30.60
2018-04-20T13:57:17.075Z,30.80
2018-04-20T13:59:44.624Z,30.80
2018-04-20T14:02:13.809Z,30.70
2018-04-20T14:04:41.494Z,30.70
2018-04-20T14:07:10.035Z,30.80
2018-04-20T14:09:37.615Z,30.70
2018-04-20T14:12:05.158Z,30.60
2018-04-20T14:14:32.729Z,30.70
2018-04-20T14:17:00.284Z,30.70
2018-04-20T14:19:27.866Z,30.90
2018-04-20T14:21:56.406Z,30.90
2018-04-20T14:24:24.743Z,30.80
2018-04-20T14:26:52.286Z,30.80
2018-04-20T14:29:20.862Z,30.80
2018-04-20T14:31:48.409Z,30.90
2018-04-20T14:34:15.998Z,30.90
2018-04-20T14:36:43.538Z,31.10
2018-04-20T14:39:11.101Z,31.10
2018-04-20T14:41:38.651Z,31.20
2018-04-20T14:44:06.277Z,31.20
2018-04-20T14:46:33.791Z,31.10
2018-04-20T14:49:01.363Z,31.10
2018-04-20T14:51:28.907Z,31.40
2018-04-20T14:53:57.256Z,31.60
2018-04-20T14:56:25.746Z,31.60
2018-04-20T14:58:53.308Z,31.60
2018-04-20T15:01:20.847Z,31.70
2018-04-20T15:03:48.406Z,31.60
2018-04-20T15:06:15.952Z,31.60
2018-04-20T15:08:46.210Z,31.50
2018-04-20T15:11:13.747Z,31.50
2018-04-20T15:13:41.310Z,31.50
2018-04-20T15:16:08.873Z,31.40
2018-04-20T15:18:37.367Z,31.30
2018-04-20T15:21:04.913Z,31.30
2018-04-20T15:23:32.475Z,31.30
2018-04-20T15:26:00.011Z,31.20
2018-04-20T15:28:28.326Z,31.00
2018-04-20T15:30:57.941Z,31.00
2018-04-20T15:33:25.596Z,30.60
2018-04-20T15:35:53.165Z,30.40
2018-04-20T15:38:20.704Z,30.30
2018-04-20T15:40:48.268Z,30.20
2018-04-20T15:43:15.821Z,30.10
2018-04-20T15:45:44.323Z,29.90
2018-04-20T15:48:12.874Z,30.00
2018-04-20T15:50:40.463Z,30.00
2018-04-20T15:53:08.012Z,29.90
2018-04-20T15:55:35.576Z,29.80
2018-04-20T15:58:03.110Z,29.70
2018-04-20T16:00:30.676Z,29.70
2018-04-20T16:02:59.255Z,29.70
2018-04-20T16:05:27.760Z,29.70
2018-04-20T16:07:55.314Z,29.70
2018-04-20T16:10:22.899Z,29.80
2018-04-20T16:12:50.444Z,30.00
2018-04-20T16:15:18.015Z,30.20
2018-04-20T16:17:46.327Z,30.60
2018-04-20T16:20:14.859Z,30.50
2018-04-20T16:22:42.416Z,30.80
2018-04-20T16:28:13.340Z,31.00
2018-04-20T16:30:40.920Z,31.00
2018-04-20T16:33:09.236Z,30.80
2018-04-20T16:35:37.747Z,30.80
2018-04-20T16:38:05.301Z,30.80
2018-04-20T16:40:32.864Z,30.90
2018-04-20T16:43:00.408Z,30.70
2018-04-20T16:45:27.983Z,30.50
2018-04-20T16:47:55.539Z,30.50
2018-04-20T16:50:23.126Z,30.50
2018-04-20T16:52:50.706Z,30.70
2018-04-20T16:55:18.289Z,30.60
2018-04-20T16:57:45.863Z,30.60
2018-04-20T17:00:13.429Z,30.60
2018-04-20T17:02:40.980Z,30.60
2018-04-20T17:05:08.544Z,30.60
2018-04-20T17:07:36.128Z,30.50
2018-04-20T17:10:03.656Z,30.50
2018-04-20T17:12:31.228Z,30.30
2018-04-20T17:14:58.798Z,30.30
2018-04-20T17:17:26.349Z,30.20
2018-04-20T17:19:53.932Z,30.10
2018-04-20T17:22:21.492Z,29.90
2018-04-20T17:24:49.045Z,29.80
2018-04-20T17:27:16.583Z,29.70
2018-04-20T17:29:44.130Z,29.60
2018-04-20T17:32:11.714Z,29.60
2018-04-20T17:34:39.259Z,29.50
2018-04-20T17:37:06.827Z,29.50
2018-04-20T17:39:34.405Z,29.40
2018-04-20T17:42:01.966Z,29.20
2018-04-20T17:44:30.379Z,28.80
2018-04-20T17:46:58.716Z,27.90
2018-04-20T17:49:26.298Z,27.80
2018-04-20T17:51:54.631Z,27.20
2018-04-20T17:54:22.173Z,27.10
2018-04-20T17:56:49.747Z,26.80
2018-04-20T17:59:17.297Z,26.50
2018-04-20T18:01:44.880Z,26.10
2018-04-20T18:04:13.190Z,25.60
2018-04-20T18:06:41.535Z,25.20
2018-04-20T18:09:09.083Z,25.20
2018-04-20T18:11:36.671Z,24.90
2018-04-20T18:14:04.223Z,24.60
2018-04-20T18:16:31.776Z,24.40
2018-04-20T18:18:59.331Z,24.10
2018-04-20T18:21:26.917Z,24.00
2018-04-20T18:23:54.463Z,23.70
2018-04-20T18:26:22.047Z,23.60
2018-04-20T18:28:49.611Z,23.40
2018-04-20T18:31:17.948Z,23.10
2018-04-20T18:33:45.524Z,23.10
2018-04-20T18:36:13.082Z,22.90
2018-04-20T18:38:41.398Z,22.80
2018-04-20T18:41:09.732Z,22.70
2018-04-20T18:43:38.094Z,22.60
2018-04-20T18:46:05.645Z,22.50
2018-04-20T18:48:33.208Z,22.40
2018-04-20T18:51:00.791Z,22.30
2018-04-20T18:53:28.343Z,22.20
2018-04-20T18:55:55.908Z,22.20
2018-04-20T18:58:23.458Z,22.00
2018-04-20T19:00:51.035Z,21.90
2018-04-20T19:03:18.598Z,21.80
2018-04-20T19:05:46.130Z,21.70
2018-04-20T19:08:13.695Z,21.50
2018-04-20T19:10:41.238Z,21.40
2018-04-20T19:13:08.822Z,21.30
2018-04-20T19:15:36.363Z,21.10
2018-04-20T19:18:03.928Z,21.00
2018-04-20T19:20:32.327Z,20.80
2018-04-20T19:23:00.696Z,20.70
2018-04-20T19:25:28.234Z,20.60
2018-04-20T19:27:55.836Z,20.70
2018-04-20T19:30:23.393Z,20.50
2018-04-20T19:32:50.956Z,20.40
2018-04-20T19:35:18.513Z,20.40
2018-04-20T19:37:46.093Z,20.40
2018-04-20T19:40:14.407Z,20.00
2018-04-20T19:42:42.041Z,19.90
2018-04-20T19:45:09.618Z,19.90
2018-04-20T19:47:37.189Z,19.90
2018-04-20T19:50:04.759Z,19.80
2018-04-20T19:52:32.387Z,19.80
2018-04-20T19:55:00.701Z,19.60
2018-04-20T19:57:28.266Z,19.60
2018-04-20T19:59:55.816Z,19.60
2018-04-20T20:02:23.421Z,19.40
2018-04-20T20:04:51.768Z,19.10
2018-04-20T20:07:19.363Z,19.00
2018-04-20T20:09:47.676Z,18.80
2018-04-20T20:12:15.242Z,18.80
2018-04-20T20:14:42.801Z,18.70
2018-04-20T20:17:10.371Z,18.50
2018-04-20T20:19:37.966Z,18.30
2018-04-20T20:22:05.541Z,18.20
2018-04-20T20:24:33.859Z,18.00
2018-04-20T20:27:01.700Z,18.00
2018-04-20T20:29:30.002Z,17.80
2018-04-20T20:31:57.566Z,17.70
2018-04-20T20:34:25.112Z,17.70
2018-04-20T20:36:52.688Z,17.60
2018-04-20T20:39:20.254Z,17.70
2018-04-20T20:41:47.828Z,17.50
2018-04-20T20:44:15.367Z,17.40
2018-04-20T20:46:42.931Z,17.40
2018-04-20T20:49:10.519Z,17.40
2018-04-20T20:51:38.096Z,17.40
2018-04-20T20:54:06.409Z,17.30
2018-04-20T20:56:33.951Z,17.30
2018-04-20T20:59:02.279Z,17.20
2018-04-20T21:01:30.768Z,17.20
2018-04-20T21:03:58.331Z,17.10
2018-04-20T21:06:25.887Z,17.10
2018-04-20T21:08:53.552Z,17.10
2018-04-20T21:11:21.098Z,17.10
2018-04-20T21:13:48.667Z,17.10
2018-04-20T21:16:16.220Z,16.90
2018-04-20T21:18:43.815Z,16.90
2018-04-20T21:21:12.139Z,16.80
2018-04-20T21:23:39.703Z,16.70
2018-04-20T21:26:07.250Z,16.60
2018-04-20T21:28:34.805Z,16.60
2018-04-20T21:31:02.375Z,16.60
2018-04-20T21:33:29.938Z,16.50
2018-04-20T21:35:57.479Z,16.50
2018-04-20T21:38:25.049Z,16.50
2018-04-20T21:40:52.598Z,16.40
2018-04-20T21:43:20.189Z,16.40
2018-04-20T21:45:47.737Z,16.40
2018-04-20T21:48:15.306Z,16.40
2018-04-20T21:50:42.865Z,16.30
2018-04-20T21:53:10.443Z,16.00
2018-04-20T21:55:38.003Z,15.90
2018-04-20T21:58:05.569Z,15.80
2018-04-20T22:00:33.119Z,15.80
2018-04-20T22:03:00.701Z,15.70
2018-04-20T22:05:28.242Z,15.70
2018-04-20T22:07:55.825Z,15.70
2018-04-20T22:10:24.163Z,15.60
2018-04-20T22:12:51.721Z,15.60
2018-04-20T22:15:19.266Z,15.60
2018-04-20T22:17:46.845Z,15.50
2018-04-20T22:20:14.385Z,15.40
2018-04-20T22:22:41.947Z,15.40
2018-04-20T22:25:09.487Z,15.30
2018-04-20T22:27:37.128Z,15.40
2018-04-20T22:30:06.137Z,15.40
2018-04-20T22:32:33.724Z,15.40
2018-04-20T22:35:01.272Z,15.30
2018-04-20T22:37:28.840Z,15.20
2018-04-20T22:39:56.380Z,15.10
2018-04-20T22:42:23.942Z,15.10
2018-04-20T22:44:51.487Z,15.10
2018-04-20T22:47:19.812Z,15.00
2018-04-20T22:49:47.407Z,14.90
2018-04-20T22:52:14.948Z,14.90
2018-04-20T22:54:42.528Z,14.90
2018-04-20T22:57:10.083Z,14.90
2018-04-20T22:59:38.422Z,14.80
2018-04-20T23:02:05.958Z,14.80
2018-04-20T23:04:33.527Z,14.80
2018-04-20T23:07:01.075Z,14.80
2018-04-20T23:09:28.666Z,14.80
2018-04-20T23:11:56.212Z,14.80
2018-04-20T23:14:23.786Z,14.80
2018-04-20T23:16:51.329Z,14.80
2018-04-20T23:19:18.908Z,14.70
2018-04-20T23:21:46.467Z,14.70
2018-04-20T23:24:14.051Z,14.60
2018-04-20T23:26:41.604Z,14.50
2018-04-20T23:29:09.174Z,14.50
2018-04-20T23:31:36.734Z,14.60
2018-04-20T23:34:04.304Z,14.60
2018-04-20T23:36:32.623Z,14.50
2018-04-20T23:39:00.200Z,14.50
2018-04-20T23:41:27.762Z,14.40
2018-04-20T23:43:55.347Z,14.40
2018-04-20T23:46:22.890Z,14.40
2018-04-20T23:48:50.458Z,14.40
2018-04-20T23:51:17.998Z,14.20
2018-04-20T23:53:45.576Z,14.20
2018-04-20T23:56:13.123Z,14.20
2018-04-20T23:58:40.699Z,14.20
